Terminal Aerodrome Forecast
Issued by NWS

Current Version | Previous Version | Graphics & Text | Print | Product List | Glossary On
Versions: 1 2 3 4 5 6 7 8 9 10 11 12 13 14 15 16 17 18 19 20 21 22 23 24 25
000
FTUS41 KRLX 262332
TAFCKB
TAF
KCKB 262332Z 2700/2724 25006KT P6SM OVC090
     FM270600 VRB03KT 4SM -SHRA BR VCTS BKN035CB
     FM270800 VRB03KT 2SM -DZ BR OVC003
     FM271400 01004KT P6SM BKN015
     FM272300 VRB03KT 6SM HZ BKN050=

USA.gov is the U.S. government's official web portal to all federal, state and local government web resources and services.